createdAt,value
2023-02-16T00:01:26.119Z,101080.78
2023-02-16T00:03:55.021Z,101083.25
2023-02-16T00:06:23.356Z,101095.06
2023-02-16T00:08:55.951Z,101091.63
2023-02-16T00:11:46.766Z,101088.19
2023-02-16T00:14:15.022Z,101083.09
2023-02-16T00:16:43.213Z,101086.44
2023-02-16T00:19:20.250Z,101079.56
2023-02-16T00:21:48.658Z,101082.09
2023-02-16T00:24:18.221Z,101075.25
2023-02-16T00:26:46.904Z,101080.34
2023-02-16T00:29:20.632Z,101082.09
2023-02-16T00:31:48.889Z,101083.06
2023-02-16T00:34:33.201Z,101084.00
2023-02-16T00:37:02.854Z,101081.50
2023-02-16T00:39:32.575Z,101090.06
2023-02-16T00:42:03.593Z,101080.78
2023-02-16T00:44:35.043Z,101084.25
2023-02-16T00:47:05.581Z,101081.78
2023-02-16T00:49:34.020Z,101082.72
2023-02-16T00:52:02.137Z,101074.25
2023-02-16T00:54:32.178Z,101073.56
2023-02-16T00:57:00.492Z,101068.53
2023-02-16T00:59:28.736Z,101066.94
2023-02-16T01:01:57.782Z,101071.19
2023-02-16T01:04:26.079Z,101073.75
2023-02-16T01:07:12.384Z,101076.41
2023-02-16T01:09:59.725Z,101078.13
2023-02-16T01:12:29.571Z,101073.03
2023-02-16T01:14:58.710Z,101075.53
2023-02-16T01:17:27.074Z,101075.47
2023-02-16T01:19:55.693Z,101072.00
2023-02-16T01:22:23.859Z,101064.34
2023-02-16T01:24:53.515Z,101067.75
2023-02-16T01:27:21.624Z,101071.09
2023-02-16T01:29:49.796Z,101064.34
2023-02-16T01:32:18.044Z,101060.13
2023-02-16T01:34:46.283Z,101060.13
2023-02-16T01:37:16.201Z,101057.59
2023-02-16T01:39:45.350Z,101064.34
2023-02-16T01:42:25.774Z,101069.38
2023-02-16T01:44:55.906Z,101060.75
2023-02-16T01:47:34.018Z,101053.06
2023-02-16T01:50:03.542Z,101059.06
2023-02-16T01:52:33.978Z,101054.81
2023-02-16T01:55:07.071Z,101053.91
2023-02-16T01:57:42.479Z,101057.22
2023-02-16T02:00:23.431Z,101062.25
2023-02-16T02:02:52.930Z,101056.25
2023-02-16T02:05:37.674Z,101063.00
2023-02-16T02:08:26.984Z,101063.72
2023-02-16T02:11:06.310Z,101074.66
2023-02-16T02:13:40.996Z,101056.91
2023-02-16T02:16:10.045Z,101049.25
2023-02-16T02:18:38.600Z,101049.22
2023-02-16T02:21:36.700Z,101040.75
2023-02-16T02:24:42.427Z,101039.06
2023-02-16T02:27:19.895Z,101032.31
2023-02-16T02:30:03.131Z,101022.25
2023-02-16T02:32:41.653Z,101024.81
2023-02-16T02:35:21.648Z,101018.06
2023-02-16T02:37:57.261Z,100997.66
2023-02-16T02:40:35.322Z,101009.56
2023-02-16T02:43:10.710Z,101012.97
2023-02-16T02:45:42.046Z,101022.25
2023-02-16T02:48:10.585Z,101034.84
2023-02-16T02:51:07.465Z,101036.34
2023-02-16T02:53:40.066Z,101031.94
2023-02-16T02:56:26.292Z,101035.25
2023-02-16T02:59:15.805Z,101034.50
2023-02-16T03:01:47.658Z,101028.63
2023-02-16T03:04:16.318Z,101038.81
2023-02-16T03:06:47.053Z,101041.28
2023-02-16T03:09:15.550Z,101053.09
2023-02-16T03:12:01.680Z,101056.41
2023-02-16T03:14:34.528Z,101049.63
2023-02-16T03:17:22.772Z,101042.94
2023-02-16T03:20:09.705Z,101039.69
2023-02-16T03:22:55.684Z,101043.13
2023-02-16T03:25:41.450Z,101033.00
2023-02-16T03:28:27.367Z,101043.22
2023-02-16T03:30:56.975Z,101047.41
2023-02-16T03:33:25.325Z,101055.03
2023-02-16T03:35:53.629Z,101056.78
2023-02-16T03:38:21.886Z,101050.91
2023-02-16T03:40:52.147Z,101041.66
2023-02-16T03:43:20.292Z,101041.72
2023-02-16T03:45:48.466Z,101039.16
2023-02-16T03:48:17.966Z,101040.88
2023-02-16T03:50:46.100Z,101038.38
2023-02-16T03:53:14.206Z,101038.38
2023-02-16T03:55:44.107Z,101049.28
2023-02-16T03:58:15.061Z,101052.56
2023-02-16T04:00:43.524Z,101062.69
2023-02-16T04:03:11.782Z,101062.75
2023-02-16T04:05:41.379Z,101058.50
2023-02-16T04:08:10.001Z,101050.94
2023-02-16T04:10:38.428Z,101047.63
2023-02-16T04:13:05.578Z,101039.22
2023-02-16T04:15:33.886Z,101043.53
2023-02-16T04:18:02.243Z,101046.97
2023-02-16T04:20:32.510Z,101044.41
2023-02-16T04:23:02.063Z,101052.94
2023-02-16T04:25:30.331Z,101061.38
2023-02-16T04:27:58.469Z,101061.25
2023-02-16T04:30:27.869Z,101054.41
2023-02-16T04:32:56.167Z,101056.09
2023-02-16T04:35:24.366Z,101049.28
2023-02-16T04:37:52.477Z,101049.28
2023-02-16T04:40:22.245Z,101038.28
2023-02-16T04:42:50.360Z,101037.47
2023-02-16T04:45:18.779Z,101031.59
2023-02-16T04:47:47.027Z,101046.00
2023-02-16T04:50:15.178Z,101051.06
2023-02-16T04:52:43.388Z,101050.16
2023-02-16T04:55:11.575Z,101046.72
2023-02-16T04:57:41.136Z,101046.66
2023-02-16T05:00:11.684Z,101042.34
2023-02-16T05:02:39.930Z,101027.88
2023-02-16T05:05:09.485Z,101034.59
2023-02-16T05:07:37.652Z,101016.75
2023-02-16T05:10:07.172Z,101028.59
2023-02-16T05:12:52.932Z,101033.69
2023-02-16T05:15:22.546Z,101039.69
2023-02-16T05:17:50.700Z,101045.63
2023-02-16T05:20:19.072Z,101049.06
2023-02-16T05:22:47.285Z,101054.19
2023-02-16T05:25:15.428Z,101059.28
2023-02-16T05:27:43.817Z,101059.34
2023-02-16T05:30:14.413Z,101047.50
2023-02-16T05:32:43.965Z,101055.03
2023-02-16T05:35:12.032Z,101057.44
2023-02-16T05:37:42.446Z,101039.63
2023-02-16T05:40:12.451Z,101044.63
2023-02-16T05:42:40.668Z,101045.41
2023-02-16T05:45:09.971Z,101042.84
2023-02-16T05:47:38.181Z,101053.84
2023-02-16T05:50:08.799Z,101059.75
2023-02-16T05:52:36.984Z,101067.47
2023-02-16T05:55:05.593Z,101074.28
2023-02-16T05:57:34.868Z,101074.34
2023-02-16T06:00:03.668Z,101073.50
2023-02-16T06:02:32.771Z,101071.78
2023-02-16T06:05:00.969Z,101064.13
2023-02-16T06:07:30.500Z,101055.63
2023-02-16T06:09:58.618Z,101056.47
2023-02-16T06:12:26.749Z,101058.16
2023-02-16T06:14:55.942Z,101064.94
2023-02-16T06:17:24.142Z,101061.56
2023-02-16T06:19:52.235Z,101068.31
2023-02-16T06:22:20.412Z,101071.72
2023-02-16T06:24:49.905Z,101070.88
2023-02-16T06:27:18.048Z,101066.59
2023-02-16T06:29:46.255Z,101066.59
2023-02-16T06:32:14.449Z,101070.03
2023-02-16T06:34:42.663Z,101075.97
2023-02-16T06:37:10.811Z,101072.56
2023-02-16T06:39:39.008Z,101078.41
2023-02-16T06:42:08.546Z,101085.16
2023-02-16T06:44:37.311Z,101091.09
2023-02-16T06:47:05.558Z,101090.25
2023-02-16T06:49:33.689Z,101095.41
2023-02-16T06:52:02.014Z,101101.31
2023-02-16T06:54:30.424Z,101116.59
2023-02-16T06:56:58.559Z,101112.34
2023-02-16T06:59:28.185Z,101104.81
2023-02-16T07:01:56.432Z,101105.63
2023-02-16T07:04:24.562Z,101106.44
2023-02-16T07:06:52.705Z,101113.31
2023-02-16T07:09:20.882Z,101113.41
2023-02-16T07:11:49.188Z,101113.47
2023-02-16T07:14:17.529Z,101116.09
2023-02-16T07:16:47.225Z,101115.38
2023-02-16T07:19:15.365Z,101118.00
2023-02-16T07:21:43.728Z,101119.78
2023-02-16T07:24:11.934Z,101113.13
2023-02-16T07:26:40.143Z,101107.22
2023-02-16T07:29:08.260Z,101102.97
2023-02-16T07:31:36.487Z,101103.00
2023-02-16T07:34:06.068Z,101099.66
2023-02-16T07:36:34.216Z,101098.00
2023-02-16T07:39:02.492Z,101098.97
2023-02-16T07:41:30.760Z,101094.09
2023-02-16T07:44:01.291Z,101092.63
2023-02-16T07:46:31.000Z,101092.13
2023-02-16T07:49:01.135Z,101082.47
2023-02-16T07:51:31.670Z,101076.84
2023-02-16T07:54:00.476Z,101072.78
2023-02-16T07:56:31.302Z,101070.28
2023-02-16T07:59:00.652Z,101064.25
2023-02-16T08:01:29.998Z,101064.84
2023-02-16T08:03:58.509Z,101063.53
2023-02-16T08:06:27.045Z,101063.75
2023-02-16T08:08:56.709Z,101057.81
2023-02-16T08:11:25.833Z,101060.34
2023-02-16T08:13:54.104Z,101056.06
2023-02-16T08:16:24.522Z,101062.75
2023-02-16T08:18:53.055Z,101062.59
2023-02-16T08:21:23.549Z,101071.63
2023-02-16T08:23:56.351Z,101073.59
2023-02-16T08:26:26.216Z,101072.88
2023-02-16T08:28:56.334Z,101071.25
2023-02-16T08:31:26.121Z,101075.41
2023-02-16T08:33:54.943Z,101074.94
2023-02-16T08:36:24.623Z,101070.03
2023-02-16T08:38:53.050Z,101064.75
2023-02-16T08:41:24.713Z,101072.59
2023-02-16T08:43:53.185Z,101063.09
2023-02-16T08:46:23.069Z,101064.44
2023-02-16T08:48:51.466Z,101064.41
2023-02-16T08:51:20.708Z,101061.78
2023-02-16T08:53:49.458Z,101068.09
2023-02-16T08:56:17.766Z,101064.13
2023-02-16T08:58:47.595Z,101058.44
2023-02-16T09:01:16.268Z,101061.34
2023-02-16T09:03:46.081Z,101069.50
2023-02-16T09:06:17.017Z,101066.44
2023-02-16T09:08:46.509Z,101061.47
2023-02-16T09:11:16.555Z,101059.66
2023-02-16T09:13:44.753Z,101056.84
2023-02-16T09:16:16.400Z,101057.41
2023-02-16T09:18:45.622Z,101054.34
2023-02-16T09:21:15.845Z,101059.06
2023-02-16T09:23:47.481Z,101054.47
2023-02-16T09:26:16.538Z,101053.28
2023-02-16T09:28:44.862Z,101062.38
2023-02-16T09:31:15.414Z,101061.94
2023-02-16T09:33:45.388Z,101063.53
2023-02-16T09:36:13.785Z,101057.22
2023-02-16T09:38:42.732Z,101053.50
2023-02-16T09:41:22.279Z,101058.41
2023-02-16T09:43:53.846Z,101065.03
2023-02-16T09:46:23.929Z,101068.50
2023-02-16T09:48:53.110Z,101076.47
2023-02-16T09:51:33.933Z,101073.22
2023-02-16T09:54:11.924Z,101066.66
2023-02-16T09:56:41.988Z,101067.22
2023-02-16T09:59:14.517Z,101053.63
2023-02-16T10:01:48.750Z,101040.72
2023-02-16T10:04:31.916Z,101042.31
2023-02-16T10:07:07.439Z,101040.31
2023-02-16T10:09:35.758Z,101043.75
2023-02-16T10:12:06.641Z,101032.63
2023-02-16T10:14:37.099Z,101033.41
2023-02-16T10:17:15.194Z,101035.31
2023-02-16T10:19:47.801Z,101022.94
2023-02-16T10:22:19.121Z,101027.16
2023-02-16T10:24:53.821Z,101024.81
2023-02-16T10:27:22.022Z,101024.16
2023-02-16T10:29:50.232Z,101025.16
2023-02-16T10:32:29.057Z,101022.81
2023-02-16T10:35:05.457Z,101025.81
2023-02-16T10:37:45.257Z,101018.31
2023-02-16T10:40:25.994Z,101007.94
2023-02-16T10:42:59.641Z,101012.63
2023-02-16T10:45:32.324Z,101016.81
2023-02-16T10:48:02.600Z,101011.28
2023-02-16T10:50:33.882Z,101019.69
2023-02-16T10:53:13.967Z,101016.13
2023-02-16T10:55:42.144Z,101013.22
2023-02-16T10:58:18.531Z,101005.06
2023-02-16T11:00:52.741Z,101011.41
2023-02-16T11:03:26.318Z,101000.91
2023-02-16T11:05:55.240Z,100994.78
2023-02-16T11:08:25.655Z,100992.44
2023-02-16T11:10:54.423Z,100983.41
2023-02-16T11:13:27.984Z,100979.22
2023-02-16T11:15:59.276Z,100973.38
2023-02-16T11:18:36.435Z,100975.31
2023-02-16T11:21:06.460Z,100969.78
2023-02-16T11:23:35.594Z,100966.38
2023-02-16T11:26:06.178Z,100968.41
2023-02-16T11:28:36.914Z,100959.78
2023-02-16T11:31:13.556Z,100952.31
2023-02-16T11:33:43.907Z,100949.38
2023-02-16T11:36:30.435Z,100947.50
2023-02-16T11:39:01.118Z,100947.09
2023-02-16T11:41:30.548Z,100929.03
2023-02-16T11:43:58.688Z,100932.81
2023-02-16T11:46:26.805Z,100936.72
2023-02-16T11:48:56.352Z,100932.81
2023-02-16T11:51:33.766Z,100930.31
2023-02-16T11:54:04.321Z,100918.50
2023-02-16T11:56:33.137Z,100912.69
2023-02-16T11:59:13.882Z,100907.00
2023-02-16T12:02:02.515Z,100909.84
2023-02-16T12:04:44.058Z,100907.50
2023-02-16T12:07:20.236Z,100898.38
2023-02-16T12:09:52.763Z,100901.94
2023-02-16T12:12:30.978Z,100906.66
2023-02-16T12:15:04.211Z,100911.00
2023-02-16T12:17:45.627Z,100910.88
2023-02-16T12:20:37.968Z,100907.44
2023-02-16T12:23:18.282Z,100909.56
2023-02-16T12:25:51.362Z,100914.16
2023-02-16T12:28:25.879Z,100910.53
2023-02-16T12:31:02.303Z,100909.97
2023-02-16T12:33:41.795Z,100901.63
2023-02-16T12:36:52.126Z,100900.31
2023-02-16T12:39:24.199Z,100899.41
2023-02-16T12:42:02.571Z,100895.13
2023-02-16T12:44:35.784Z,100894.94
2023-02-16T12:47:05.509Z,100893.75
2023-02-16T12:49:40.468Z,100883.31
2023-02-16T12:52:13.348Z,100880.47
2023-02-16T12:54:45.309Z,100881.84
2023-02-16T12:57:15.459Z,100876.59
2023-02-16T12:59:47.744Z,100866.78
2023-02-16T13:02:19.553Z,100882.25
2023-02-16T13:04:51.723Z,100872.50
2023-02-16T13:07:26.649Z,100867.13
2023-02-16T13:10:00.150Z,100861.91
2023-02-16T13:12:32.866Z,100859.16
2023-02-16T13:15:13.273Z,100849.34
2023-02-16T13:17:44.340Z,100847.53
2023-02-16T13:20:17.023Z,100846.78
2023-02-16T13:23:29.744Z,100848.66
2023-02-16T13:26:35.050Z,100837.81
2023-02-16T13:29:32.726Z,100836.34
2023-02-16T13:32:29.287Z,100830.56
2023-02-16T13:35:17.954Z,100838.72
2023-02-16T13:38:05.592Z,100833.53
2023-02-16T13:41:10.308Z,100829.34
2023-02-16T13:43:38.542Z,100829.59
2023-02-16T13:46:08.353Z,100826.06
2023-02-16T13:48:39.657Z,100818.88
2023-02-16T13:51:13.814Z,100809.19
2023-02-16T13:53:44.004Z,100800.53
2023-02-16T13:56:23.284Z,100800.34
2023-02-16T13:58:51.771Z,100798.50
2023-02-16T14:01:41.853Z,100796.59
2023-02-16T14:04:14.584Z,100792.28
2023-02-16T14:06:43.660Z,100793.78
2023-02-16T14:09:46.684Z,100791.25
2023-02-16T14:12:18.622Z,100793.91
2023-02-16T14:14:57.497Z,100791.09
2023-02-16T14:17:28.338Z,100790.00
2023-02-16T14:19:58.848Z,100788.75
2023-02-16T14:22:34.393Z,100786.63
2023-02-16T14:25:04.532Z,100780.94
2023-02-16T14:27:47.226Z,100784.00
2023-02-16T14:30:25.396Z,100782.00
2023-02-16T14:32:58.334Z,100773.06
2023-02-16T14:35:29.342Z,100765.94
2023-02-16T14:37:59.166Z,100764.56
2023-02-16T14:40:52.723Z,100758.97
2023-02-16T14:43:29.213Z,100772.59
2023-02-16T14:46:26.041Z,100769.91
2023-02-16T14:49:25.874Z,100766.84
2023-02-16T14:52:27.448Z,100762.69
2023-02-16T14:55:56.968Z,100766.72
2023-02-16T14:58:31.671Z,100759.28
2023-02-16T15:01:06.186Z,100767.19
2023-02-16T15:03:45.287Z,100763.09
2023-02-16T15:06:21.936Z,100760.59
2023-02-16T15:08:57.200Z,100760.53
2023-02-16T15:11:34.782Z,100760.53
2023-02-16T15:14:09.921Z,100758.72
2023-02-16T15:16:41.552Z,100757.94
2023-02-16T15:19:17.783Z,100762.22
2023-02-16T15:21:45.973Z,100757.03
2023-02-16T15:24:23.662Z,100762.22
2023-02-16T15:26:57.875Z,100755.19
2023-02-16T15:29:29.560Z,100749.22
2023-02-16T15:31:59.316Z,100754.56
2023-02-16T15:34:30.611Z,100750.16
2023-02-16T15:36:58.924Z,100763.91
2023-02-16T15:39:41.349Z,100752.88
2023-02-16T15:42:22.293Z,100740.19
2023-02-16T15:44:52.013Z,100729.66
2023-02-16T15:47:23.471Z,100736.69
2023-02-16T15:49:51.796Z,100737.66
2023-02-16T15:52:22.294Z,100738.66
2023-02-16T15:54:50.472Z,100736.13
2023-02-16T15:57:21.856Z,100740.63
2023-02-16T15:59:52.927Z,100741.56
2023-02-16T16:02:22.780Z,100734.88
2023-02-16T16:04:54.977Z,100751.59
2023-02-16T16:07:28.206Z,100746.56
2023-02-16T16:09:56.732Z,100745.09
2023-02-16T16:12:25.720Z,100742.63
2023-02-16T16:14:57.524Z,100749.75
2023-02-16T16:17:29.741Z,100748.13
2023-02-16T16:19:58.275Z,100747.41
2023-02-16T16:22:35.908Z,100752.84
2023-02-16T16:25:04.364Z,100745.47
2023-02-16T16:27:36.029Z,100751.44
2023-02-16T16:30:25.146Z,100757.66
2023-02-16T16:33:00.895Z,100757.75
2023-02-16T16:35:36.641Z,100764.81
2023-02-16T16:38:05.162Z,100754.69
2023-02-16T16:40:35.191Z,100769.47
2023-02-16T16:43:17.031Z,100755.91
2023-02-16T16:45:47.545Z,100766.63
2023-02-16T16:48:19.230Z,100768.63
2023-02-16T16:50:48.013Z,100765.44
2023-02-16T16:53:57.251Z,100775.41
2023-02-16T16:56:25.573Z,100762.88
2023-02-16T16:58:56.731Z,100770.09
2023-02-16T17:01:27.376Z,100773.91
2023-02-16T17:03:55.640Z,100776.69
2023-02-16T17:06:24.177Z,100763.19
2023-02-16T17:08:52.325Z,100779.06
2023-02-16T17:11:25.593Z,100773.38
2023-02-16T17:13:54.763Z,100772.06
2023-02-16T17:16:27.391Z,100767.34
2023-02-16T17:18:55.551Z,100772.03
2023-02-16T17:21:23.761Z,100768.03
2023-02-16T17:23:53.518Z,100764.88
2023-02-16T17:26:22.441Z,100769.38
2023-02-16T17:28:50.838Z,100776.31
2023-02-16T17:31:19.062Z,100789.41
2023-02-16T17:33:48.657Z,100777.69
2023-02-16T17:36:16.907Z,100778.81
2023-02-16T17:38:45.043Z,100791.00
2023-02-16T17:41:18.439Z,100781.59
2023-02-16T17:43:46.666Z,100784.47
2023-02-16T17:46:14.878Z,100773.38
2023-02-16T17:48:43.181Z,100773.50
2023-02-16T17:51:14.706Z,100776.25
2023-02-16T17:53:42.955Z,100772.88
2023-02-16T17:56:11.580Z,100781.41
2023-02-16T17:58:39.743Z,100783.94
2023-02-16T18:01:08.011Z,100777.00
2023-02-16T18:03:36.124Z,100784.00
2023-02-16T18:06:04.787Z,100780.59
2023-02-16T18:08:34.496Z,100790.00
2023-02-16T18:11:02.924Z,100792.63
2023-02-16T18:13:31.089Z,100791.88
2023-02-16T18:16:00.129Z,100786.00
2023-02-16T18:18:28.303Z,100790.88
2023-02-16T18:20:56.473Z,100793.25
2023-02-16T18:23:24.644Z,100795.72
2023-02-16T18:25:54.236Z,100787.84
2023-02-16T18:28:26.796Z,100785.19
2023-02-16T18:30:55.141Z,100787.72
2023-02-16T18:33:23.844Z,100781.59
2023-02-16T18:35:54.154Z,100790.03
2023-02-16T18:38:22.544Z,100775.25
2023-02-16T18:40:50.820Z,100769.94
2023-02-16T18:43:21.031Z,100770.59
2023-02-16T18:45:49.315Z,100771.34
2023-02-16T18:48:17.578Z,100765.09
2023-02-16T18:50:45.809Z,100768.25
2023-02-16T18:53:13.934Z,100767.19
2023-02-16T18:55:42.167Z,100755.75
2023-02-16T18:58:12.288Z,100747.00
2023-02-16T19:00:46.494Z,100747.59
2023-02-16T19:03:14.607Z,100746.53
2023-02-16T19:05:42.752Z,100759.34
2023-02-16T19:08:10.887Z,100754.13
2023-02-16T19:10:39.052Z,100760.13
2023-02-16T19:13:07.366Z,100762.56
2023-02-16T19:15:35.857Z,100768.44
2023-02-16T19:18:05.948Z,100770.00
2023-02-16T19:20:34.636Z,100763.88
2023-02-16T19:23:02.897Z,100767.31
2023-02-16T19:25:31.243Z,100765.53
2023-02-16T19:27:59.389Z,100770.56
2023-02-16T19:30:27.695Z,100770.44
2023-02-16T19:32:57.027Z,100774.72
2023-02-16T19:35:26.664Z,100772.94
2023-02-16T19:37:55.796Z,100765.94
2023-02-16T19:40:24.036Z,100773.63
2023-02-16T19:42:52.360Z,100767.53
2023-02-16T19:45:20.952Z,100768.34
2023-02-16T19:47:51.265Z,100770.94
2023-02-16T19:50:19.630Z,100769.97
2023-02-16T19:52:49.173Z,100776.81
2023-02-16T19:55:17.593Z,100786.31
2023-02-16T19:57:45.769Z,100787.16
2023-02-16T20:00:15.209Z,100788.78
2023-02-16T20:02:43.460Z,100790.50
2023-02-16T20:05:11.862Z,100788.69
2023-02-16T20:07:40.132Z,100792.03
2023-02-16T20:10:10.596Z,100789.34
2023-02-16T20:12:38.784Z,100784.16
2023-02-16T20:15:07.915Z,100787.53
2023-02-16T20:17:36.069Z,100789.22
2023-02-16T20:20:05.268Z,100782.38
2023-02-16T20:22:33.513Z,100782.22
2023-02-16T20:25:04.783Z,100773.56
2023-02-16T20:27:34.361Z,100779.53
2023-02-16T20:30:03.001Z,100776.94
2023-02-16T20:32:31.325Z,100767.41
2023-02-16T20:34:59.580Z,100763.91
2023-02-16T20:37:27.793Z,100758.72
2023-02-16T20:39:55.932Z,100763.06
2023-02-16T20:42:24.069Z,100756.09
2023-02-16T20:44:53.570Z,100751.69
2023-02-16T20:47:21.736Z,100753.44
2023-02-16T20:49:49.887Z,100753.34
2023-02-16T20:52:18.022Z,100762.84
2023-02-16T20:54:46.184Z,100768.00
2023-02-16T20:57:26.092Z,100762.94
2023-02-16T20:59:56.603Z,100760.44
2023-02-16T21:02:24.833Z,100768.25
2023-02-16T21:04:52.974Z,100764.75
2023-02-16T21:07:21.137Z,100757.84
2023-02-16T21:09:49.270Z,100750.91
2023-02-16T21:12:17.529Z,100756.03
2023-02-16T21:14:45.687Z,100755.16
2023-02-16T21:17:15.210Z,100748.25
2023-02-16T21:19:43.352Z,100751.72
2023-02-16T21:22:11.668Z,100750.06
2023-02-16T21:24:40.757Z,100738.00
2023-02-16T21:27:09.109Z,100745.72
2023-02-16T21:29:37.322Z,100742.22
2023-02-16T21:32:06.094Z,100740.47
2023-02-16T21:34:35.638Z,100733.53
2023-02-16T21:37:04.201Z,100733.53
2023-02-16T21:39:55.190Z,100733.66
2023-02-16T21:42:23.441Z,100733.53
2023-02-16T21:45:11.909Z,100736.19
2023-02-16T21:47:57.967Z,100725.13
2023-02-16T21:50:27.535Z,100731.06
2023-02-16T21:52:55.818Z,100738.84
2023-02-16T21:55:41.794Z,100730.31
2023-02-16T21:58:10.753Z,100713.97
2023-02-16T22:00:39.189Z,100714.75
2023-02-16T22:03:07.550Z,100720.78
2023-02-16T22:05:37.129Z,100714.88
2023-02-16T22:08:05.925Z,100718.28
2023-02-16T22:10:35.227Z,100718.38
2023-02-16T22:13:03.403Z,100713.31
2023-02-16T22:15:31.703Z,100708.13
2023-02-16T22:17:59.874Z,100704.69
2023-02-16T22:20:27.973Z,100705.53
2023-02-16T22:22:57.494Z,100697.75
2023-02-16T22:25:25.643Z,100697.75
2023-02-16T22:27:53.799Z,100702.09
2023-02-16T22:30:22.127Z,100703.88
2023-02-16T22:32:50.557Z,100696.09
2023-02-16T22:35:19.132Z,100700.44
2023-02-16T22:37:47.220Z,100695.31
2023-02-16T22:40:17.533Z,100699.56
2023-02-16T22:42:45.653Z,100697.91
2023-02-16T22:45:13.788Z,100703.06
2023-02-16T22:47:42.559Z,100697.94
2023-02-16T22:50:11.761Z,100700.53
2023-02-16T22:52:39.969Z,100703.13
2023-02-16T22:55:09.607Z,100702.34
2023-02-16T22:57:39.410Z,100707.66
2023-02-16T23:00:09.465Z,100705.13
2023-02-16T23:02:38.494Z,100703.44
2023-02-16T23:05:07.292Z,100711.19
2023-02-16T23:07:35.710Z,100713.88
2023-02-16T23:10:04.244Z,100714.75
2023-02-16T23:12:32.591Z,100709.50
2023-02-16T23:15:02.076Z,100706.13
2023-02-16T23:17:30.356Z,100711.38
2023-02-16T23:19:58.501Z,100708.88
2023-02-16T23:22:26.699Z,100707.16
2023-02-16T23:25:08.910Z,100704.63
2023-02-16T23:27:37.131Z,100700.44
2023-02-16T23:30:09.015Z,100696.13
2023-02-16T23:32:37.834Z,100690.06
2023-02-16T23:35:07.357Z,100686.44
2023-02-16T23:37:36.099Z,100724.38
2023-02-16T23:40:04.738Z,100699.41
2023-02-16T23:42:34.241Z,100665.16
2023-02-16T23:45:02.983Z,100691.50
2023-02-16T23:47:33.008Z,100704.28
2023-02-16T23:50:01.667Z,100696.69
2023-02-16T23:52:30.068Z,100693.31
2023-02-16T23:54:58.576Z,100688.06
2023-02-16T23:57:27.340Z,100671.16
2023-02-16T23:59:55.692Z,100680.94
